createdAt,value
2017-10-30T00:02:02.951Z,101455
2017-10-30T00:04:31.017Z,101463
2017-10-30T00:06:59.617Z,101465
2017-10-30T00:09:27.724Z,101479
2017-10-30T00:11:56.596Z,101478
2017-10-30T00:14:24.668Z,101479
2017-10-30T00:16:53.172Z,101474
2017-10-30T00:19:21.271Z,101481
2017-10-30T00:21:49.384Z,101477
2017-10-30T00:24:17.680Z,101488
2017-10-30T00:26:45.763Z,101489
2017-10-30T00:29:13.868Z,101480
2017-10-30T00:31:41.963Z,101486
2017-10-30T00:34:10.087Z,101486
2017-10-30T00:36:38.931Z,101483
2017-10-30T00:39:07.004Z,101486
2017-10-30T00:41:35.137Z,101492
2017-10-30T00:44:03.216Z,101496
2017-10-30T00:46:31.882Z,101491
2017-10-30T00:49:00.136Z,101503
2017-10-30T00:51:28.211Z,101493
2017-10-30T00:53:57.072Z,101493
2017-10-30T00:56:25.158Z,101487
2017-10-30T00:58:53.268Z,101496
2017-10-30T01:01:22.108Z,101494
2017-10-30T01:03:50.252Z,101493
2017-10-30T01:06:18.332Z,101503
2017-10-30T01:08:46.405Z,101501
2017-10-30T01:11:14.868Z,101494
2017-10-30T01:13:42.968Z,101499
2017-10-30T01:16:11.052Z,101494
2017-10-30T01:18:39.161Z,101491
2017-10-30T01:21:08.025Z,101481
2017-10-30T01:23:36.095Z,101491
2017-10-30T01:26:04.183Z,101497
2017-10-30T01:28:32.299Z,101494
2017-10-30T01:31:00.385Z,101494
2017-10-30T01:33:28.467Z,101489
2017-10-30T01:35:56.589Z,101495
2017-10-30T01:38:25.415Z,101494
2017-10-30T01:40:53.687Z,101500
2017-10-30T01:43:22.708Z,101498
2017-10-30T01:45:51.156Z,101491
2017-10-30T01:48:19.247Z,101496
2017-10-30T01:50:47.341Z,101489
2017-10-30T01:53:15.417Z,101491
2017-10-30T01:55:44.500Z,101496
2017-10-30T01:58:12.568Z,101499
2017-10-30T02:00:40.700Z,101495
2017-10-30T02:03:08.773Z,101504
2017-10-30T02:05:37.060Z,101498
2017-10-30T02:08:05.596Z,101502
2017-10-30T02:10:33.680Z,101498
2017-10-30T02:13:02.555Z,101501
2017-10-30T02:15:30.640Z,101506
2017-10-30T02:17:59.478Z,101497
2017-10-30T02:20:27.611Z,101518
2017-10-30T02:22:56.463Z,101502
2017-10-30T02:25:24.749Z,101505
2017-10-30T02:27:52.855Z,101507
2017-10-30T02:30:21.713Z,101512
2017-10-30T02:32:49.785Z,101506
2017-10-30T02:35:17.923Z,101507
2017-10-30T02:37:45.997Z,101518
2017-10-30T02:40:14.110Z,101516
2017-10-30T02:42:42.224Z,101530
2017-10-30T02:45:10.297Z,101530
2017-10-30T02:47:38.379Z,101529
2017-10-30T02:50:07.581Z,101537
2017-10-30T02:52:35.655Z,101524
2017-10-30T02:55:03.745Z,101530
2017-10-30T02:57:31.844Z,101529
2017-10-30T02:59:59.933Z,101533
2017-10-30T03:02:27.999Z,101526
2017-10-30T03:04:56.101Z,101532
2017-10-30T03:07:24.188Z,101529
2017-10-30T03:09:52.272Z,101528
2017-10-30T03:12:21.659Z,101543
2017-10-30T03:14:49.736Z,101539
2017-10-30T03:17:17.821Z,101543
2017-10-30T03:19:45.931Z,101541
2017-10-30T03:22:14.196Z,101562
2017-10-30T03:24:42.364Z,101565
2017-10-30T03:27:10.432Z,101573
2017-10-30T03:29:38.532Z,101569
2017-10-30T03:32:07.384Z,101577
2017-10-30T03:34:35.472Z,101575
2017-10-30T03:37:03.546Z,101579
2017-10-30T03:39:31.639Z,101586
2017-10-30T03:41:59.717Z,101576
2017-10-30T03:44:28.603Z,101576
2017-10-30T03:46:56.709Z,101579
2017-10-30T03:49:24.793Z,101581
2017-10-30T03:51:53.113Z,101585
2017-10-30T03:54:21.186Z,101593
2017-10-30T03:56:50.038Z,101591
2017-10-30T03:59:18.162Z,101597
2017-10-30T04:01:47.032Z,101599
2017-10-30T04:04:15.116Z,101592
2017-10-30T04:06:43.972Z,101595
2017-10-30T04:09:12.072Z,101599
2017-10-30T04:11:40.142Z,101597
2017-10-30T04:14:08.245Z,101600
2017-10-30T04:16:36.319Z,101607
2017-10-30T04:19:04.393Z,101607
2017-10-30T04:21:32.489Z,101617
2017-10-30T04:24:00.568Z,101616
2017-10-30T04:26:29.460Z,101617
2017-10-30T04:28:58.784Z,101632
2017-10-30T04:31:26.865Z,101627
2017-10-30T04:33:54.961Z,101630
2017-10-30T04:36:23.042Z,101635
2017-10-30T04:38:51.297Z,101641
2017-10-30T04:41:19.397Z,101650
2017-10-30T04:43:47.500Z,101654
2017-10-30T04:46:15.574Z,101644
2017-10-30T04:48:43.688Z,101647
2017-10-30T04:51:12.528Z,101648
2017-10-30T04:53:40.617Z,101650
2017-10-30T04:56:08.733Z,101647
2017-10-30T04:58:37.562Z,101653
2017-10-30T05:01:05.658Z,101657
2017-10-30T05:03:33.757Z,101654
2017-10-30T05:06:02.623Z,101649
2017-10-30T05:08:30.700Z,101645
2017-10-30T05:10:58.773Z,101658
2017-10-30T05:13:27.020Z,101656
2017-10-30T05:15:55.092Z,101662
2017-10-30T05:18:23.184Z,101659
2017-10-30T05:20:51.264Z,101653
2017-10-30T05:23:19.387Z,101657
2017-10-30T05:25:47.475Z,101652
2017-10-30T05:28:15.571Z,101661
2017-10-30T05:30:43.642Z,101665
2017-10-30T05:33:11.720Z,101666
2017-10-30T05:35:39.845Z,101675
2017-10-30T05:38:07.924Z,101667
2017-10-30T05:40:36.489Z,101665
2017-10-30T05:43:04.576Z,101684
2017-10-30T05:45:32.651Z,101676
2017-10-30T05:48:00.776Z,101684
2017-10-30T05:50:29.643Z,101682
2017-10-30T05:52:57.885Z,101689
2017-10-30T05:55:25.965Z,101683
2017-10-30T05:57:54.080Z,101688
2017-10-30T06:00:22.152Z,101692
2017-10-30T06:02:50.225Z,101690
2017-10-30T06:05:18.392Z,101690
2017-10-30T06:07:46.504Z,101692
2017-10-30T06:10:14.596Z,101697
2017-10-30T06:12:42.702Z,101709
2017-10-30T06:15:10.796Z,101707
2017-10-30T06:17:40.655Z,101712
2017-10-30T06:20:09.425Z,101718
2017-10-30T06:22:37.532Z,101722
2017-10-30T06:25:05.598Z,101727
2017-10-30T06:27:33.680Z,101716
2017-10-30T06:30:01.755Z,101715
2017-10-30T06:32:30.487Z,101729
2017-10-30T06:34:58.613Z,101724
2017-10-30T06:37:26.700Z,101731
2017-10-30T06:39:54.791Z,101734
2017-10-30T06:42:23.640Z,101736
2017-10-30T06:44:51.741Z,101728
2017-10-30T06:47:19.833Z,101731
2017-10-30T06:49:47.928Z,101728
2017-10-30T06:52:16.033Z,101728
2017-10-30T06:54:44.152Z,101737
2017-10-30T06:57:12.292Z,101742
2017-10-30T06:59:40.388Z,101752
2017-10-30T07:02:21.003Z,101755
2017-10-30T07:04:49.104Z,101754
2017-10-30T07:07:17.184Z,101756
2017-10-30T07:09:45.502Z,101758
2017-10-30T07:12:13.629Z,101764
2017-10-30T07:14:41.757Z,101764
2017-10-30T07:17:09.823Z,101762
2017-10-30T07:19:37.948Z,101777
2017-10-30T07:22:06.256Z,101776
2017-10-30T07:24:35.117Z,101778
2017-10-30T07:27:03.211Z,101784
2017-10-30T07:29:32.106Z,101788
2017-10-30T07:32:00.949Z,101796
2017-10-30T07:34:29.828Z,101803
2017-10-30T07:36:58.092Z,101801
2017-10-30T07:39:26.164Z,101816
2017-10-30T07:41:54.260Z,101817
2017-10-30T07:44:22.370Z,101809
2017-10-30T07:46:51.245Z,101820
2017-10-30T07:49:19.316Z,101824
2017-10-30T07:51:47.411Z,101823
2017-10-30T07:54:15.495Z,101824
2017-10-30T07:56:43.622Z,101831
2017-10-30T07:59:11.717Z,101825
2017-10-30T08:01:40.204Z,101832
2017-10-30T08:04:09.209Z,101830
2017-10-30T08:06:38.067Z,101835
2017-10-30T08:14:50.955Z,101839
2017-10-30T08:17:27.475Z,101853
2017-10-30T08:34:39.557Z,101858
2017-10-30T08:49:00.952Z,101856
2017-10-30T08:51:31.161Z,101859
2017-10-30T09:11:31.005Z,101870
2017-10-30T09:50:30.236Z,101883
2017-10-30T09:53:01.501Z,101884
2017-10-30T09:55:40.829Z,101875
2017-10-30T09:58:13.878Z,101883
2017-10-30T10:00:43.065Z,101879
2017-10-30T10:03:13.387Z,101881
2017-10-30T10:05:44.482Z,101932
2017-10-30T10:08:15.561Z,101898
2017-10-30T10:10:43.708Z,101893
2017-10-30T10:13:13.731Z,101899
2017-10-30T10:18:44.971Z,101909
2017-10-30T10:21:15.854Z,101914
2017-10-30T10:23:47.478Z,101775
2017-10-30T10:26:16.461Z,101926
2017-10-30T10:28:47.462Z,101918
2017-10-30T10:34:00.604Z,101918
2017-10-30T10:36:29.513Z,101914
2017-10-30T10:41:31.743Z,101918
2017-10-30T10:46:34.195Z,101915
2017-10-30T10:49:10.456Z,101914
2017-10-30T10:54:25.987Z,101913
2017-10-30T11:16:23.248Z,102039
2017-10-30T11:26:18.784Z,101933
2017-10-30T11:47:26.962Z,101947
2017-10-30T11:50:00.769Z,101930
2017-10-30T11:52:33.933Z,101946
2017-10-30T11:57:52.606Z,101938
2017-10-30T12:03:04.957Z,101736
2017-10-30T12:24:36.536Z,101954
2017-10-30T12:27:08.291Z,101951
2017-10-30T12:29:36.442Z,101963
2017-10-30T12:42:41.898Z,101962
2017-10-30T12:50:58.882Z,102146
2017-10-30T12:56:28.971Z,101954
2017-10-30T12:58:57.179Z,101952
2017-10-30T13:01:25.324Z,101959
2017-10-30T13:06:27.717Z,101887
2017-10-30T13:17:50.395Z,101845
2017-10-30T13:20:25.498Z,101967
2017-10-30T13:22:55.492Z,101956
2017-10-30T13:39:56.315Z,101753
2017-10-30T13:45:20.193Z,101952
2017-10-30T13:50:50.653Z,101953
2017-10-30T13:53:18.901Z,101954
2017-10-30T13:55:49.042Z,101951
2017-10-30T13:58:18.239Z,101946
2017-10-30T14:00:47.478Z,101958
2017-10-30T14:08:44.806Z,101955
2017-10-30T14:13:49.378Z,101957
2017-10-30T14:16:18.982Z,101956
2017-10-30T14:18:47.161Z,101950
2017-10-30T14:21:21.297Z,101956
2017-10-30T14:23:50.669Z,101954
2017-10-30T14:26:22.801Z,101950
2017-10-30T14:28:52.577Z,101951
2017-10-30T14:31:26.820Z,101957
2017-10-30T14:36:45.401Z,101948
2017-10-30T14:39:13.694Z,101956
2017-10-30T14:44:20.186Z,101952
2017-10-30T14:47:01.431Z,101956
2017-10-30T14:49:30.390Z,101946
2017-10-30T14:52:04.466Z,101948
2017-10-30T14:57:06.601Z,101950
2017-10-30T14:59:36.633Z,101947
2017-10-30T15:02:09.613Z,101953
2017-10-30T15:04:40.762Z,101958
2017-10-30T15:07:11.965Z,101957
2017-10-30T15:09:41.854Z,101963
2017-10-30T15:12:19.422Z,101958
2017-10-30T15:23:33.382Z,101966
2017-10-30T15:26:04.645Z,101969
2017-10-30T15:28:32.775Z,101970
2017-10-30T15:31:06.825Z,101980
2017-10-30T15:33:36.825Z,101982
2017-10-30T15:36:06.394Z,101977
2017-10-30T15:41:25.926Z,101987
2017-10-30T15:43:58.437Z,101987
2017-10-30T15:46:30.302Z,101992
2017-10-30T15:49:01.570Z,101987
2017-10-30T15:51:30.965Z,101992
2017-10-30T15:54:00.484Z,101988
2017-10-30T15:56:28.641Z,101987
2017-10-30T16:02:08.170Z,101981
2017-10-30T16:04:36.743Z,101982
2017-10-30T16:07:05.738Z,101990
2017-10-30T16:09:34.893Z,101997
2017-10-30T16:12:03.009Z,101994
2017-10-30T16:14:31.144Z,101999
2017-10-30T16:16:59.240Z,102001
2017-10-30T16:19:27.344Z,102000
2017-10-30T16:21:55.473Z,102003
2017-10-30T16:24:24.485Z,102010
2017-10-30T16:26:52.631Z,102006
2017-10-30T16:29:20.724Z,102010
2017-10-30T16:31:48.905Z,102012
2017-10-30T16:34:17.061Z,102008
2017-10-30T16:36:45.180Z,102013
2017-10-30T16:39:15.669Z,102019
2017-10-30T16:41:44.821Z,102023
2017-10-30T16:44:13.771Z,102017
2017-10-30T16:46:42.679Z,102026
2017-10-30T16:49:12.520Z,102025
2017-10-30T16:51:40.631Z,102019
2017-10-30T16:54:09.748Z,102009
2017-10-30T16:56:38.678Z,102017
2017-10-30T16:59:07.698Z,102011
2017-10-30T17:01:35.794Z,102017
2017-10-30T17:04:07.711Z,102009
2017-10-30T17:06:35.872Z,102009
2017-10-30T17:09:04.824Z,102009
2017-10-30T17:11:32.972Z,102014
2017-10-30T17:14:01.199Z,102013
2017-10-30T17:16:29.352Z,102012
2017-10-30T17:18:57.484Z,102011
2017-10-30T17:21:25.588Z,102010
2017-10-30T17:23:53.857Z,102013
2017-10-30T17:26:22.056Z,102017
2017-10-30T17:28:50.186Z,102014
2017-10-30T17:31:19.428Z,102013
2017-10-30T17:33:48.463Z,102008
2017-10-30T17:36:17.259Z,102008
2017-10-30T17:38:45.371Z,102020
2017-10-30T17:41:13.596Z,102016
2017-10-30T17:43:41.710Z,102018
2017-10-30T17:46:11.193Z,102021
2017-10-30T17:48:42.440Z,102021
2017-10-30T17:51:10.552Z,102033
2017-10-30T17:53:38.677Z,102037
2017-10-30T17:56:06.775Z,102032
2017-10-30T17:58:34.913Z,102033
2017-10-30T18:01:03.113Z,102043
2017-10-30T18:03:31.212Z,102040
2017-10-30T18:05:59.319Z,102038
2017-10-30T18:08:27.480Z,102044
2017-10-30T18:10:57.332Z,102052
2017-10-30T18:13:25.435Z,102043
2017-10-30T18:15:54.004Z,102038
2017-10-30T18:18:22.085Z,102040
2017-10-30T18:20:51.272Z,102046
2017-10-30T18:23:19.449Z,102044
2017-10-30T18:25:47.597Z,102044
2017-10-30T18:28:15.724Z,102044
2017-10-30T18:30:43.816Z,102050
2017-10-30T18:33:14.694Z,102050
2017-10-30T18:35:44.303Z,102061
2017-10-30T18:38:12.412Z,102056
2017-10-30T18:40:41.382Z,102058
2017-10-30T18:43:09.474Z,102064
2017-10-30T18:45:37.585Z,102063
2017-10-30T18:48:10.471Z,102077
2017-10-30T18:50:39.477Z,102079
2017-10-30T18:53:08.560Z,102069
2017-10-30T18:55:37.424Z,102076
2017-10-30T18:58:05.541Z,102065
2017-10-30T19:00:34.415Z,102074
2017-10-30T19:03:03.467Z,102071
2017-10-30T19:05:32.509Z,102081
2017-10-30T19:08:00.592Z,102084
2017-10-30T19:10:28.761Z,102083
2017-10-30T19:12:56.873Z,102087
2017-10-30T19:15:25.902Z,102087
2017-10-30T19:17:53.979Z,102095
2017-10-30T19:20:22.171Z,102097
2017-10-30T19:22:50.397Z,102088
2017-10-30T19:25:20.819Z,102092
2017-10-30T19:27:48.992Z,102097
2017-10-30T19:30:17.124Z,102098
2017-10-30T19:32:45.228Z,102091
2017-10-30T19:35:14.375Z,102099
2017-10-30T19:37:43.260Z,102090
2017-10-30T19:40:14.195Z,102086
2017-10-30T19:42:43.037Z,102090
2017-10-30T19:45:12.951Z,102090
2017-10-30T19:47:41.109Z,102086
2017-10-30T19:50:10.277Z,102087
2017-10-30T19:52:39.241Z,102097
2017-10-30T19:55:08.240Z,102078
2017-10-30T19:57:37.149Z,102089
2017-10-30T20:00:06.995Z,102099
2017-10-30T20:02:35.461Z,102094
2017-10-30T20:05:09.152Z,102092
2017-10-30T20:07:43.441Z,102091
2017-10-30T20:10:18.835Z,102085
2017-10-30T20:12:46.974Z,102097
2017-10-30T20:15:15.053Z,102084
2017-10-30T20:17:44.781Z,102090
2017-10-30T20:20:13.675Z,102085
2017-10-30T20:22:41.841Z,102094
2017-10-30T20:25:09.985Z,102096
2017-10-30T20:27:38.865Z,102092
2017-10-30T20:30:07.031Z,102097
2017-10-30T20:32:35.152Z,102096
2017-10-30T20:35:04.023Z,102095
2017-10-30T20:37:33.035Z,102099
2017-10-30T20:40:01.905Z,102097
2017-10-30T20:42:30.827Z,102106
2017-10-30T20:44:59.933Z,102108
2017-10-30T20:47:29.220Z,102101
2017-10-30T20:49:57.328Z,102122
2017-10-30T20:52:25.436Z,102118
2017-10-30T20:54:53.565Z,102105
2017-10-30T20:57:22.781Z,102110
2017-10-30T20:59:51.837Z,102108
2017-10-30T21:02:19.927Z,102112
2017-10-30T21:04:48.064Z,102107
2017-10-30T21:07:16.948Z,102113
2017-10-30T21:09:47.256Z,102118
2017-10-30T21:12:16.170Z,102125
2017-10-30T21:14:44.294Z,102131
2017-10-30T21:17:12.426Z,102111
2017-10-30T21:19:40.576Z,102115
2017-10-30T21:22:08.656Z,102116
2017-10-30T21:24:36.801Z,102122
2017-10-30T21:27:04.976Z,102115
2017-10-30T21:29:33.096Z,102114
2017-10-30T21:32:01.303Z,102107
2017-10-30T21:34:29.460Z,102111
2017-10-30T21:36:57.561Z,102125
2017-10-30T21:39:25.643Z,102117
2017-10-30T21:41:53.768Z,102122
2017-10-30T21:44:22.689Z,102113
2017-10-30T21:46:50.773Z,102116
2017-10-30T21:49:19.816Z,102120
2017-10-30T21:51:48.695Z,102114
2017-10-30T21:54:18.273Z,102113
2017-10-30T21:56:46.377Z,102109
2017-10-30T21:59:15.268Z,102106
2017-10-30T22:01:44.156Z,102104
2017-10-30T22:04:12.251Z,102106
2017-10-30T22:06:40.344Z,102103
2017-10-30T22:09:08.491Z,102103
2017-10-30T22:11:36.593Z,102099
2017-10-30T22:14:04.731Z,102110
2017-10-30T22:16:33.661Z,102109
2017-10-30T22:19:01.788Z,102106
2017-10-30T22:21:29.915Z,102102
2017-10-30T22:23:58.036Z,102100
2017-10-30T22:26:26.937Z,102106
2017-10-30T22:28:55.029Z,102101
2017-10-30T22:31:24.255Z,102111
2017-10-30T22:33:56.214Z,102106
2017-10-30T22:36:24.387Z,102107
2017-10-30T22:38:52.521Z,102102
2017-10-30T22:41:20.699Z,102105
2017-10-30T22:43:51.981Z,102100
2017-10-30T22:46:21.837Z,102099
2017-10-30T22:48:50.388Z,102098
2017-10-30T22:51:18.700Z,102101
2017-10-30T22:53:47.804Z,102104
2017-10-30T22:56:16.005Z,102111
2017-10-30T22:58:45.413Z,102107
2017-10-30T23:01:13.588Z,102106
2017-10-30T23:03:41.717Z,102103
2017-10-30T23:06:10.792Z,102097
2017-10-30T23:08:39.642Z,102096
2017-10-30T23:11:07.823Z,102092
2017-10-30T23:15:59.705Z,102102
2017-10-30T23:18:28.851Z,102109
2017-10-30T23:20:56.974Z,102101
2017-10-30T23:23:25.100Z,102094
2017-10-30T23:25:53.240Z,102101
2017-10-30T23:28:21.357Z,102110
2017-10-30T23:30:51.404Z,102098
2017-10-30T23:33:19.793Z,102098
2017-10-30T23:35:47.888Z,102099
2017-10-30T23:38:16.797Z,102099
2017-10-30T23:40:44.929Z,102099
2017-10-30T23:43:13.062Z,102101
2017-10-30T23:45:41.168Z,102093
2017-10-30T23:48:10.030Z,102088
2017-10-30T23:50:40.373Z,102097
2017-10-30T23:53:09.235Z,102091
2017-10-30T23:55:38.294Z,102091
2017-10-30T23:58:07.165Z,102088
